Bosporus Highway — 3EXG9 — position and weather

sailwx.info

Track history (hours):
 
Tides and Currents Weather Stations Pressure Air Temp Water Temp Dewpoint Dewpoint Depression Visibility Wind Speed Wind Dir Waves Ship Positions

Bosporus Highway

Last reported at 2018-Jun-19 00:29 UTC. Time now 2018-Jun-19 00:53 UTC.
Position N 33°58' W 119°03'.

Length 199 m; draft 8.3 m.

Type: Cargo ship. MMSI: 372981000.

Date/timePositionNaut miles runAvg speedWind from/ knotsBaromVisibWave heightAir tempDewpointWater temp
2018-Jun-19 00:29N 33°58' W 119°03'611.5
2018-Jun-18 23:56N 33°55' W 118°56'711.5
2018-Jun-18 23:22N 33°52' W 118°49'411.2
2018-Jun-18 23:00N 33°50' W 118°45'611.2
2018-Jun-18 22:30N 33°47' W 118°39'511.0
2018-Jun-18 22:00N 33°44' W 118°33'611.2
2018-Jun-18 21:30N 33°42' W 118°27'611.2
2018-Jun-18 21:01N 33°39' W 118°21'611.2
2018-Jun-18 20:30N 33°38' W 118°15'4 8.8
2018-Jun-18 20:00N 33°42' W 118°11'3 6.6
2018-Jun-18 19:30N 33°45' W 118°13'2 3.2
2018-Jun-18 19:00N 33°46' W 118°13'0 0.0
2018-Jun-18 18:30N 33°46' W 118°13'0 0.0
2018-Jun-18 18:00N 33°46' W 118°13'0 0.0
2018-Jun-18 17:30N 33°46' W 118°13'0 0.0
2018-Jun-18 17:00N 33°46' W 118°13'0 0.0
2018-Jun-18 16:27N 33°46' W 118°13'0 0.0
2018-Jun-18 16:00N 33°46' W 118°13'0 0.0
2018-Jun-18 15:30N 33°46' W 118°13'0 0.0
2018-Jun-18 15:00N 33°46' W 118°13'0 0.0
2018-Jun-18 14:30N 33°46' W 118°13'0 0.0
2018-Jun-18 14:00N 33°46' W 118°13'0 0.0
2018-Jun-18 13:30N 33°46' W 118°13'0 0.0
2018-Jun-18 13:00N 33°46' W 118°13'0 0.0
2018-Jun-18 12:30N 33°46' W 118°13'0 0.0
2018-Jun-18 12:00N 33°46' W 118°13'0 0.3
2018-Jun-18 11:30N 33°46' W 118°13'1 2.6
2018-Jun-18 11:00N 33°45' W 118°13'4 7.9
2018-Jun-18 10:30N 33°42' W 118°11'3 6.4
2018-Jun-18 10:00N 33°38' W 118°10'3 5.3
2018-Jun-18 09:30N 33°36' W 118°10'3 6.3
2018-Jun-18 09:00N 33°33' W 118°08'4 7.4
2018-Jun-18 08:30N 33°29' W 118°07'611.4
2018-Jun-18 07:59N 33°24' W 118°05'611.4
2018-Jun-18 07:29N 33°18' W 118°02'511.4
2018-Jun-18 07:00N 33°15' W 117°57'611.2
2018-Jun-18 06:30N 33°11' W 117°53'611.4
2018-Jun-18 06:00N 33°06' W 117°48'815.5
2018-Jun-18 05:30N 33°00' W 117°42'815.5
2018-Jun-18 05:00N 32°55' W 117°36'815.6
2018-Jun-18 04:30N 32°49' W 117°30'815.5
2018-Jun-18 04:00N 32°42' W 117°26'814.9
2018-Jun-18 03:27N 32°37' W 117°18'4 9.2
2018-Jun-18 03:00N 32°39' W 117°14'5 4.4
2018-Jun-18 01:49N 32°40' W 117°08'0 0.0
2018-Jun-17 09:22N 32°39' W 117°07'6 7.1
2018-Jun-17 08:34N 32°43' W 117°13'310.0
2018-Jun-17 08:13N 32°40' W 117°14'2 9.7
2018-Jun-17 08:01N 32°38' W 117°14'5 4.5
2018-Jun-17 06:47N 32°33' W 117°17'1 2.5
2018-Jun-17 06:25N 32°33' W 117°18'511.4
2018-Jun-17 05:56N 32°28' W 117°21'1215.0
2018-Jun-17 05:06N 32°15' W 117°20'215.2
2018-Jun-17 05:00N 32°14' W 117°20'815.0
2018-Jun-17 04:30N 32°07' W 117°16'1114.9
2018-Jun-17 03:47N 31°57' W 117°11'1115.3
2018-Jun-17 03:05N 31°47' W 117°08'715.0
2018-Jun-17 02:37N 31°40' W 117°07'214.6
2018-Jun-17 02:30N 31°38' W 117°06'914.7
2018-Jun-17 01:52N 31°30' W 117°03'715.0
2018-Jun-17 01:23N 31°22' W 117°00'3515.3
2018-Jun-16 23:05N 30°49' W 116°50'215.4
2018-Jun-16 22:57N 30°47' W 116°49'715.3
2018-Jun-16 22:30N 30°40' W 116°46'815.2
2018-Jun-16 21:58N 30°32' W 116°43'714.9
2018-Jun-16 21:30N 30°26' W 116°41'815.1
2018-Jun-16 21:00N 30°19' W 116°38'715.0
2018-Jun-16 20:30N 30°11' W 116°36'914.8
2018-Jun-16 19:55N 30°03' W 116°33'914.9
2018-Jun-16 19:18N 29°54' W 116°29'615.1
2018-Jun-16 18:56N 29°49' W 116°27'715.6
2018-Jun-16 18:30N 29°43' W 116°25'815.4
2018-Jun-16 17:58N 29°35' W 116°22'715.6
2018-Jun-16 17:30N 29°28' W 116°20'1717.2
2018-Jun-16 16:29N 29°11' W 116°14'12916.7
2018-Jun-16 08:47N 27°17' W 115°06'916.8
2018-Jun-16 08:15N 27°10' W 115°00'3516.5
2018-Jun-16 06:07N 26°41' W 114°37'216.7
2018-Jun-16 06:00N 26°40' W 114°36'816.5
2018-Jun-16 05:30N 26°33' W 114°30'  
Track history (hours):
 
Tides and Currents Weather Stations Pressure Air Temp Water Temp Dewpoint Dewpoint Depression Visibility Wind Speed Wind Dir Waves Ship Positions

Bosporus Highway

Last reported at 2018-Jun-19 00:29 UTC. Time now 2018-Jun-19 00:53 UTC.
Position N 33°58' W 119°03'.

Length 199 m; draft 8.3 m.

Type: Cargo ship. MMSI: 372981000.

Date/timePositionNaut miles runAvg speedWind from/ knotsBaromVisibWave heightAir tempDewpointWater temp
2018-Jun-19 00:29N 33°58' W 119°03'611.5
2018-Jun-18 23:56N 33°55' W 118°56'711.5
2018-Jun-18 23:22N 33°52' W 118°49'411.2
2018-Jun-18 23:00N 33°50' W 118°45'611.2
2018-Jun-18 22:30N 33°47' W 118°39'511.0
2018-Jun-18 22:00N 33°44' W 118°33'611.2
2018-Jun-18 21:30N 33°42' W 118°27'611.2
2018-Jun-18 21:01N 33°39' W 118°21'611.2
2018-Jun-18 20:30N 33°38' W 118°15'4 8.8
2018-Jun-18 20:00N 33°42' W 118°11'3 6.6
2018-Jun-18 19:30N 33°45' W 118°13'2 3.2
2018-Jun-18 19:00N 33°46' W 118°13'0 0.0
2018-Jun-18 18:30N 33°46' W 118°13'0 0.0
2018-Jun-18 18:00N 33°46' W 118°13'0 0.0
2018-Jun-18 17:30N 33°46' W 118°13'0 0.0
2018-Jun-18 17:00N 33°46' W 118°13'0 0.0
2018-Jun-18 16:27N 33°46' W 118°13'0 0.0
2018-Jun-18 16:00N 33°46' W 118°13'0 0.0
2018-Jun-18 15:30N 33°46' W 118°13'0 0.0
2018-Jun-18 15:00N 33°46' W 118°13'0 0.0
2018-Jun-18 14:30N 33°46' W 118°13'0 0.0
2018-Jun-18 14:00N 33°46' W 118°13'0 0.0
2018-Jun-18 13:30N 33°46' W 118°13'0 0.0
2018-Jun-18 13:00N 33°46' W 118°13'0 0.0
2018-Jun-18 12:30N 33°46' W 118°13'0 0.0
2018-Jun-18 12:00N 33°46' W 118°13'0 0.3
2018-Jun-18 11:30N 33°46' W 118°13'1 2.6
2018-Jun-18 11:00N 33°45' W 118°13'4 7.9
2018-Jun-18 10:30N 33°42' W 118°11'3 6.4
2018-Jun-18 10:00N 33°38' W 118°10'3 5.3
2018-Jun-18 09:30N 33°36' W 118°10'3 6.3
2018-Jun-18 09:00N 33°33' W 118°08'4 7.4
2018-Jun-18 08:30N 33°29' W 118°07'611.4
2018-Jun-18 07:59N 33°24' W 118°05'611.4
2018-Jun-18 07:29N 33°18' W 118°02'511.4
2018-Jun-18 07:00N 33°15' W 117°57'611.2
2018-Jun-18 06:30N 33°11' W 117°53'611.4
2018-Jun-18 06:00N 33°06' W 117°48'815.5
2018-Jun-18 05:30N 33°00' W 117°42'815.5
2018-Jun-18 05:00N 32°55' W 117°36'815.6
2018-Jun-18 04:30N 32°49' W 117°30'815.5
2018-Jun-18 04:00N 32°42' W 117°26'814.9
2018-Jun-18 03:27N 32°37' W 117°18'4 9.2
2018-Jun-18 03:00N 32°39' W 117°14'5 4.4
2018-Jun-18 01:49N 32°40' W 117°08'0 0.0
2018-Jun-17 09:22N 32°39' W 117°07'6 7.1
2018-Jun-17 08:34N 32°43' W 117°13'310.0
2018-Jun-17 08:13N 32°40' W 117°14'2 9.7
2018-Jun-17 08:01N 32°38' W 117°14'5 4.5
2018-Jun-17 06:47N 32°33' W 117°17'1 2.5
2018-Jun-17 06:25N 32°33' W 117°18'511.4
2018-Jun-17 05:56N 32°28' W 117°21'1215.0
2018-Jun-17 05:06N 32°15' W 117°20'215.2
2018-Jun-17 05:00N 32°14' W 117°20'815.0
2018-Jun-17 04:30N 32°07' W 117°16'1114.9
2018-Jun-17 03:47N 31°57' W 117°11'1115.3
2018-Jun-17 03:05N 31°47' W 117°08'715.0
2018-Jun-17 02:37N 31°40' W 117°07'214.6
2018-Jun-17 02:30N 31°38' W 117°06'914.7
2018-Jun-17 01:52N 31°30' W 117°03'715.0
2018-Jun-17 01:23N 31°22' W 117°00'3515.3
2018-Jun-16 23:05N 30°49' W 116°50'215.4
2018-Jun-16 22:57N 30°47' W 116°49'715.3
2018-Jun-16 22:30N 30°40' W 116°46'815.2
2018-Jun-16 21:58N 30°32' W 116°43'714.9
2018-Jun-16 21:30N 30°26' W 116°41'815.1
2018-Jun-16 21:00N 30°19' W 116°38'715.0
2018-Jun-16 20:30N 30°11' W 116°36'914.8
2018-Jun-16 19:55N 30°03' W 116°33'914.9
2018-Jun-16 19:18N 29°54' W 116°29'615.1
2018-Jun-16 18:56N 29°49' W 116°27'715.6
2018-Jun-16 18:30N 29°43' W 116°25'815.4
2018-Jun-16 17:58N 29°35' W 116°22'715.6
2018-Jun-16 17:30N 29°28' W 116°20'1717.2
2018-Jun-16 16:29N 29°11' W 116°14'12916.7
2018-Jun-16 08:47N 27°17' W 115°06'916.8
2018-Jun-16 08:15N 27°10' W 115°00'3516.5
2018-Jun-16 06:07N 26°41' W 114°37'216.7
2018-Jun-16 06:00N 26°40' W 114°36'816.5
2018-Jun-16 05:30N 26°33' W 114°30'  

Dump ship's entire track history